Susuman, Russia
Current Conditions -  °F | °C
As of 1:00 AM on Saturday 01 Nov 2014 (Local Time) from UHMM Reporting Station
Light Snow Light Snow  
Wind Chill:   Ceiling: 10000
Heat Index: 14°   Visibility: 6mi
Dew Point:   Wind: 7mph
Humidity: 73%   Direction: 340°NNW
Pressure: 29.53"   Gusts: NA
Location:  62.78°N, 148.17°E
Report Text: UHMM 311400Z 34003MPS 9999 -SN FEW036 OVC100 M10/M14 Q1000 RMKQFE735
Loading
Personal Weather Stations






























Interactive Weather Map
Tropical Storm Tracking
New forecast layout! Learn more

10-Day Weather Forecast

Advertisements
Track Severe Weather on mobile